sensor_id;sensor_type;location;lat;lon;timestamp;P1;durP1;ratioP1;P2;durP2;ratioP2
64738;SDS011;51175;51.186;0.276;2023-09-19T00:00:31;11.60;;;6.95;;
64738;SDS011;51175;51.186;0.276;2023-09-19T00:01:03;10.80;;;6.05;;
64738;SDS011;51175;51.186;0.276;2023-09-19T00:01:36;11.52;;;6.25;;
64738;SDS011;51175;51.186;0.276;2023-09-19T00:02:06;12.05;;;6.00;;
64738;SDS011;51175;51.186;0.276;2023-09-19T00:02:38;12.45;;;6.07;;
64738;SDS011;51175;51.186;0.276;2023-09-19T00:03:10;11.38;;;5.55;;
64738;SDS011;51175;51.186;0.276;2023-09-19T00:03:41;14.60;;;6.35;;
64738;SDS011;51175;51.186;0.276;2023-09-19T00:04:12;13.90;;;5.95;;
64738;SDS011;51175;51.186;0.276;2023-09-19T00:04:44;14.77;;;6.25;;
64738;SDS011;51175;51.186;0.276;2023-09-19T00:05:15;13.23;;;5.88;;
64738;SDS011;51175;51.186;0.276;2023-09-19T00:05:45;12.52;;;6.47;;
64738;SDS011;51175;51.186;0.276;2023-09-19T00:06:15;12.32;;;5.90;;
64738;SDS011;51175;51.186;0.276;2023-09-19T00:06:46;12.40;;;5.85;;
64738;SDS011;51175;51.186;0.276;2023-09-19T00:07:17;11.23;;;5.88;;
64738;SDS011;51175;51.186;0.276;2023-09-19T00:07:47;10.20;;;5.75;;
64738;SDS011;51175;51.186;0.276;2023-09-19T00:08:18;12.00;;;6.20;;
64738;SDS011;51175;51.186;0.276;2023-09-19T00:08:53;11.68;;;6.28;;
64738;SDS011;51175;51.186;0.276;2023-09-19T00:09:24;13.32;;;5.78;;
64738;SDS011;51175;51.186;0.276;2023-09-19T00:09:57;9.85;;;6.15;;
64738;SDS011;51175;51.186;0.276;2023-09-19T00:10:28;10.63;;;5.47;;
64738;SDS011;51175;51.186;0.276;2023-09-19T00:11:01;13.50;;;5.90;;
64738;SDS011;51175;51.186;0.276;2023-09-19T00:11:33;9.32;;;5.40;;
64738;SDS011;51175;51.186;0.276;2023-09-19T00:12:05;11.00;;;5.45;;
64738;SDS011;51175;51.186;0.276;2023-09-19T00:12:36;14.23;;;6.07;;
64738;SDS011;51175;51.186;0.276;2023-09-19T00:13:06;8.70;;;5.63;;
64738;SDS011;51175;51.186;0.276;2023-09-19T00:13:38;12.07;;;5.53;;
64738;SDS011;51175;51.186;0.276;2023-09-19T00:14:08;10.95;;;5.72;;
64738;SDS011;51175;51.186;0.276;2023-09-19T00:14:39;10.80;;;6.00;;
64738;SDS011;51175;51.186;0.276;2023-09-19T00:15:10;9.43;;;5.03;;
64738;SDS011;51175;51.186;0.276;2023-09-19T00:15:42;10.20;;;5.75;;
64738;SDS011;51175;51.186;0.276;2023-09-19T00:16:20;11.15;;;5.15;;
64738;SDS011;51175;51.186;0.276;2023-09-19T00:16:50;13.23;;;5.45;;
64738;SDS011;51175;51.186;0.276;2023-09-19T00:17:21;11.38;;;5.38;;
64738;SDS011;51175;51.186;0.276;2023-09-19T00:17:52;11.15;;;5.45;;
64738;SDS011;51175;51.186;0.276;2023-09-19T00:18:22;12.95;;;5.07;;
64738;SDS011;51175;51.186;0.276;2023-09-19T00:18:54;10.32;;;4.88;;
64738;SDS011;51175;51.186;0.276;2023-09-19T00:19:25;11.60;;;5.05;;
64738;SDS011;51175;51.186;0.276;2023-09-19T00:19:55;11.20;;;5.30;;
64738;SDS011;51175;51.186;0.276;2023-09-19T00:20:26;10.82;;;4.90;;
64738;SDS011;51175;51.186;0.276;2023-09-19T00:20:57;7.18;;;3.92;;
64738;SDS011;51175;51.186;0.276;2023-09-19T00:21:33;8.95;;;4.68;;
64738;SDS011;51175;51.186;0.276;2023-09-19T00:22:04;10.20;;;5.07;;
64738;SDS011;51175;51.186;0.276;2023-09-19T00:22:34;12.05;;;4.57;;
64738;SDS011;51175;51.186;0.276;2023-09-19T00:23:06;12.65;;;4.80;;
64738;SDS011;51175;51.186;0.276;2023-09-19T00:23:38;10.05;;;4.50;;
64738;SDS011;51175;51.186;0.276;2023-09-19T00:24:11;9.43;;;4.75;;
64738;SDS011;51175;51.186;0.276;2023-09-19T00:24:42;10.95;;;5.22;;
64738;SDS011;51175;51.186;0.276;2023-09-19T00:25:12;10.98;;;5.32;;
64738;SDS011;51175;51.186;0.276;2023-09-19T00:25:45;12.65;;;4.65;;
64738;SDS011;51175;51.186;0.276;2023-09-19T00:26:15;9.05;;;5.10;;
64738;SDS011;51175;51.186;0.276;2023-09-19T00:26:48;10.00;;;5.00;;
64738;SDS011;51175;51.186;0.276;2023-09-19T00:27:18;9.43;;;5.15;;
64738;SDS011;51175;51.186;0.276;2023-09-19T00:27:48;11.00;;;5.25;;
64738;SDS011;51175;51.186;0.276;2023-09-19T00:28:21;10.23;;;5.35;;
64738;SDS011;51175;51.186;0.276;2023-09-19T00:28:52;12.63;;;4.80;;
64738;SDS011;51175;51.186;0.276;2023-09-19T00:29:22;9.27;;;5.60;;
64738;SDS011;51175;51.186;0.276;2023-09-19T00:29:53;9.02;;;4.50;;
64738;SDS011;51175;51.186;0.276;2023-09-19T00:30:24;9.43;;;5.05;;
64738;SDS011;51175;51.186;0.276;2023-09-19T00:30:54;11.43;;;5.30;;
64738;SDS011;51175;51.186;0.276;2023-09-19T00:31:25;9.65;;;4.82;;
64738;SDS011;51175;51.186;0.276;2023-09-19T00:31:55;8.15;;;4.60;;
64738;SDS011;51175;51.186;0.276;2023-09-19T00:32:27;10.95;;;4.80;;
64738;SDS011;51175;51.186;0.276;2023-09-19T00:33:02;9.63;;;4.70;;
64738;SDS011;51175;51.186;0.276;2023-09-19T00:33:35;9.20;;;4.38;;
64738;SDS011;51175;51.186;0.276;2023-09-19T00:34:06;6.80;;;4.32;;
64738;SDS011;51175;51.186;0.276;2023-09-19T00:34:37;9.90;;;4.82;;
64738;SDS011;51175;51.186;0.276;2023-09-19T00:35:07;9.13;;;4.43;;
64738;SDS011;51175;51.186;0.276;2023-09-19T00:35:46;8.18;;;4.97;;
64738;SDS011;51175;51.186;0.276;2023-09-19T00:36:20;13.82;;;4.57;;
64738;SDS011;51175;51.186;0.276;2023-09-19T00:36:50;9.77;;;4.45;;
64738;SDS011;51175;51.186;0.276;2023-09-19T00:37:24;7.95;;;5.25;;
64738;SDS011;51175;51.186;0.276;2023-09-19T00:37:55;11.48;;;4.47;;
64738;SDS011;51175;51.186;0.276;2023-09-19T00:38:25;8.43;;;4.38;;
64738;SDS011;51175;51.186;0.276;2023-09-19T00:38:56;7.95;;;4.35;;
64738;SDS011;51175;51.186;0.276;2023-09-19T00:39:27;9.35;;;4.40;;
64738;SDS011;51175;51.186;0.276;2023-09-19T00:39:57;11.63;;;4.43;;
64738;SDS011;51175;51.186;0.276;2023-09-19T00:40:28;12.10;;;4.97;;
64738;SDS011;51175;51.186;0.276;2023-09-19T00:40:59;9.40;;;4.07;;
64738;SDS011;51175;51.186;0.276;2023-09-19T00:41:30;10.32;;;4.25;;
64738;SDS011;51175;51.186;0.276;2023-09-19T00:42:00;9.45;;;4.75;;
64738;SDS011;51175;51.186;0.276;2023-09-19T00:42:35;9.45;;;4.03;;
64738;SDS011;51175;51.186;0.276;2023-09-19T00:43:07;9.80;;;3.88;;
64738;SDS011;51175;51.186;0.276;2023-09-19T00:43:38;8.75;;;3.35;;
64738;SDS011;51175;51.186;0.276;2023-09-19T00:44:10;8.85;;;4.47;;
64738;SDS011;51175;51.186;0.276;2023-09-19T00:44:40;10.65;;;4.45;;
64738;SDS011;51175;51.186;0.276;2023-09-19T00:45:11;9.85;;;4.88;;
64738;SDS011;51175;51.186;0.276;2023-09-19T00:45:43;9.95;;;3.75;;
64738;SDS011;51175;51.186;0.276;2023-09-19T00:46:18;7.35;;;3.83;;
64738;SDS011;51175;51.186;0.276;2023-09-19T00:46:49;10.15;;;4.25;;
64738;SDS011;51175;51.186;0.276;2023-09-19T00:47:20;7.78;;;4.05;;
64738;SDS011;51175;51.186;0.276;2023-09-19T00:47:51;8.60;;;4.25;;
64738;SDS011;51175;51.186;0.276;2023-09-19T00:48:22;9.88;;;4.57;;
64738;SDS011;51175;51.186;0.276;2023-09-19T00:48:52;7.53;;;3.88;;
64738;SDS011;51175;51.186;0.276;2023-09-19T00:49:23;9.02;;;4.20;;
64738;SDS011;51175;51.186;0.276;2023-09-19T00:49:55;9.15;;;4.88;;
64738;SDS011;51175;51.186;0.276;2023-09-19T00:50:26;10.35;;;4.03;;
64738;SDS011;51175;51.186;0.276;2023-09-19T00:50:59;7.85;;;3.50;;
64738;SDS011;51175;51.186;0.276;2023-09-19T00:51:34;9.75;;;4.40;;
64738;SDS011;51175;51.186;0.276;2023-09-19T00:52:05;10.00;;;5.00;;
64738;SDS011;51175;51.186;0.276;2023-09-19T00:52:37;10.82;;;4.18;;
64738;SDS011;51175;51.186;0.276;2023-09-19T00:53:09;7.70;;;3.80;;
64738;SDS011;51175;51.186;0.276;2023-09-19T00:53:43;8.45;;;3.95;;
64738;SDS011;51175;51.186;0.276;2023-09-19T00:54:16;10.00;;;3.67;;
64738;SDS011;51175;51.186;0.276;2023-09-19T00:54:48;7.15;;;3.38;;
64738;SDS011;51175;51.186;0.276;2023-09-19T00:55:18;8.63;;;3.70;;
64738;SDS011;51175;51.186;0.276;2023-09-19T00:55:52;7.93;;;3.70;;
64738;SDS011;51175;51.186;0.276;2023-09-19T00:56:22;7.95;;;3.80;;
64738;SDS011;51175;51.186;0.276;2023-09-19T00:56:53;11.75;;;3.85;;
64738;SDS011;51175;51.186;0.276;2023-09-19T00:57:24;8.18;;;4.15;;
64738;SDS011;51175;51.186;0.276;2023-09-19T00:57:55;7.18;;;3.58;;
64738;SDS011;51175;51.186;0.276;2023-09-19T00:58:26;9.95;;;3.58;;
64738;SDS011;51175;51.186;0.276;2023-09-19T00:59:02;10.20;;;4.55;;
64738;SDS011;51175;51.186;0.276;2023-09-19T00:59:32;6.78;;;3.60;;
64738;SDS011;51175;51.186;0.276;2023-09-19T01:00:04;7.32;;;3.47;;
64738;SDS011;51175;51.186;0.276;2023-09-19T01:00:38;11.20;;;3.75;;
64738;SDS011;51175;51.186;0.276;2023-09-19T01:01:09;9.00;;;3.17;;
64738;SDS011;51175;51.186;0.276;2023-09-19T01:01:41;8.30;;;3.80;;
64738;SDS011;51175;51.186;0.276;2023-09-19T01:02:15;8.80;;;3.00;;
64738;SDS011;51175;51.186;0.276;2023-09-19T01:02:46;8.00;;;3.83;;
64738;SDS011;51175;51.186;0.276;2023-09-19T01:03:17;9.43;;;3.80;;
64738;SDS011;51175;51.186;0.276;2023-09-19T01:03:48;9.98;;;3.50;;
64738;SDS011;51175;51.186;0.276;2023-09-19T01:04:19;7.22;;;3.70;;
64738;SDS011;51175;51.186;0.276;2023-09-19T01:04:50;9.00;;;3.85;;
64738;SDS011;51175;51.186;0.276;2023-09-19T01:05:21;9.77;;;3.58;;
64738;SDS011;51175;51.186;0.276;2023-09-19T01:05:53;9.02;;;3.38;;
64738;SDS011;51175;51.186;0.276;2023-09-19T01:06:24;11.40;;;3.78;;
64738;SDS011;51175;51.186;0.276;2023-09-19T01:06:54;6.28;;;2.75;;
64738;SDS011;51175;51.186;0.276;2023-09-19T01:07:26;9.95;;;3.22;;
64738;SDS011;51175;51.186;0.276;2023-09-19T01:07:56;6.38;;;3.38;;
64738;SDS011;51175;51.186;0.276;2023-09-19T01:08:27;8.50;;;3.38;;
64738;SDS011;51175;51.186;0.276;2023-09-19T01:08:59;6.93;;;3.60;;
64738;SDS011;51175;51.186;0.276;2023-09-19T01:09:30;10.70;;;4.22;;
64738;SDS011;51175;51.186;0.276;2023-09-19T01:10:03;9.40;;;3.47;;
64738;SDS011;51175;51.186;0.276;2023-09-19T01:10:36;12.30;;;3.55;;
64738;SDS011;51175;51.186;0.276;2023-09-19T01:11:26;10.35;;;4.53;;
64738;SDS011;51175;51.186;0.276;2023-09-19T01:12:02;8.77;;;3.40;;
64738;SDS011;51175;51.186;0.276;2023-09-19T01:13:45;12.63;;;4.32;;
64738;SDS011;51175;51.186;0.276;2023-09-19T01:14:38;6.05;;;2.67;;
64738;SDS011;51175;51.186;0.276;2023-09-19T01:15:49;8.90;;;3.75;;
64738;SDS011;51175;51.186;0.276;2023-09-19T01:16:31;9.48;;;3.20;;
64738;SDS011;51175;51.186;0.276;2023-09-19T01:17:24;8.45;;;3.85;;
64738;SDS011;51175;51.186;0.276;2023-09-19T01:18:01;7.93;;;2.90;;
64738;SDS011;51175;51.186;0.276;2023-09-19T01:20:01;5.93;;;2.60;;
64738;SDS011;51175;51.186;0.276;2023-09-19T01:21:26;6.82;;;3.22;;
64738;SDS011;51175;51.186;0.276;2023-09-19T01:23:10;7.18;;;4.07;;
64738;SDS011;51175;51.186;0.276;2023-09-19T01:25:26;7.78;;;3.22;;
64738;SDS011;51175;51.186;0.276;2023-09-19T01:26:51;10.32;;;3.55;;
64738;SDS011;51175;51.186;0.276;2023-09-19T01:28:21;7.78;;;2.80;;
64738;SDS011;51175;51.186;0.276;2023-09-19T01:29:36;10.25;;;3.17;;
64738;SDS011;51175;51.186;0.276;2023-09-19T01:30:10;9.73;;;3.42;;
64738;SDS011;51175;51.186;0.276;2023-09-19T01:30:43;6.50;;;2.80;;
64738;SDS011;51175;51.186;0.276;2023-09-19T01:31:16;8.77;;;3.83;;
64738;SDS011;51175;51.186;0.276;2023-09-19T01:31:49;8.65;;;3.80;;
64738;SDS011;51175;51.186;0.276;2023-09-19T01:32:24;8.10;;;3.35;;
64738;SDS011;51175;51.186;0.276;2023-09-19T01:32:55;6.28;;;2.85;;
64738;SDS011;51175;51.186;0.276;2023-09-19T01:33:27;10.15;;;3.42;;
64738;SDS011;51175;51.186;0.276;2023-09-19T01:34:01;7.60;;;2.88;;
64738;SDS011;51175;51.186;0.276;2023-09-19T01:34:55;8.75;;;3.70;;
64738;SDS011;51175;51.186;0.276;2023-09-19T01:35:29;8.48;;;2.72;;
64738;SDS011;51175;51.186;0.276;2023-09-19T01:35:59;7.85;;;2.97;;
64738;SDS011;51175;51.186;0.276;2023-09-19T01:36:31;8.73;;;3.90;;
64738;SDS011;51175;51.186;0.276;2023-09-19T01:37:06;7.63;;;2.53;;
64738;SDS011;51175;51.186;0.276;2023-09-19T01:37:36;7.38;;;3.05;;
64738;SDS011;51175;51.186;0.276;2023-09-19T01:38:07;9.90;;;4.18;;
64738;SDS011;51175;51.186;0.276;2023-09-19T01:38:41;8.80;;;3.08;;
64738;SDS011;51175;51.186;0.276;2023-09-19T01:39:11;7.03;;;2.67;;
64738;SDS011;51175;51.186;0.276;2023-09-19T01:39:43;6.68;;;2.55;;
64738;SDS011;51175;51.186;0.276;2023-09-19T01:40:15;9.07;;;2.88;;
64738;SDS011;51175;51.186;0.276;2023-09-19T01:40:54;7.22;;;2.40;;
64738;SDS011;51175;51.186;0.276;2023-09-19T01:42:37;7.93;;;3.13;;
64738;SDS011;51175;51.186;0.276;2023-09-19T01:43:20;6.28;;;3.00;;
64738;SDS011;51175;51.186;0.276;2023-09-19T01:43:57;8.15;;;3.45;;
64738;SDS011;51175;51.186;0.276;2023-09-19T01:46:51;12.48;;;4.00;;
64738;SDS011;51175;51.186;0.276;2023-09-19T01:47:33;8.52;;;3.13;;
64738;SDS011;51175;51.186;0.276;2023-09-19T01:48:19;10.38;;;3.33;;
64738;SDS011;51175;51.186;0.276;2023-09-19T01:49:10;6.07;;;2.50;;
64738;SDS011;51175;51.186;0.276;2023-09-19T01:49:43;8.40;;;3.20;;
64738;SDS011;51175;51.186;0.276;2023-09-19T01:51:02;8.00;;;2.50;;
64738;SDS011;51175;51.186;0.276;2023-09-19T01:51:42;8.02;;;2.67;;
64738;SDS011;51175;51.186;0.276;2023-09-19T01:52:21;7.63;;;2.90;;
64738;SDS011;51175;51.186;0.276;2023-09-19T01:53:02;6.80;;;2.63;;
64738;SDS011;51175;51.186;0.276;2023-09-19T01:54:16;7.70;;;2.70;;
64738;SDS011;51175;51.186;0.276;2023-09-19T01:54:53;10.27;;;2.63;;
64738;SDS011;51175;51.186;0.276;2023-09-19T01:55:30;7.65;;;2.63;;
64738;SDS011;51175;51.186;0.276;2023-09-19T01:56:07;8.07;;;2.25;;
64738;SDS011;51175;51.186;0.276;2023-09-19T01:56:45;6.78;;;2.83;;
64738;SDS011;51175;51.186;0.276;2023-09-19T01:57:30;10.70;;;3.03;;
64738;SDS011;51175;51.186;0.276;2023-09-19T01:58:27;8.13;;;2.35;;
64738;SDS011;51175;51.186;0.276;2023-09-19T01:59:06;6.43;;;2.22;;
64738;SDS011;51175;51.186;0.276;2023-09-19T01:59:45;5.80;;;2.28;;
64738;SDS011;51175;51.186;0.276;2023-09-19T02:00:22;6.53;;;2.53;;
64738;SDS011;51175;51.186;0.276;2023-09-19T02:00:54;7.88;;;2.63;;
64738;SDS011;51175;51.186;0.276;2023-09-19T02:01:26;9.70;;;2.65;;
64738;SDS011;51175;51.186;0.276;2023-09-19T02:01:58;8.80;;;3.50;;
64738;SDS011;51175;51.186;0.276;2023-09-19T02:02:29;7.38;;;3.20;;
64738;SDS011;51175;51.186;0.276;2023-09-19T02:03:00;6.22;;;2.17;;
64738;SDS011;51175;51.186;0.276;2023-09-19T02:03:33;7.13;;;2.35;;
64738;SDS011;51175;51.186;0.276;2023-09-19T02:04:06;8.70;;;2.50;;
64738;SDS011;51175;51.186;0.276;2023-09-19T02:04:37;9.88;;;2.88;;
64738;SDS011;51175;51.186;0.276;2023-09-19T02:05:07;9.05;;;2.63;;
64738;SDS011;51175;51.186;0.276;2023-09-19T02:05:38;9.50;;;2.60;;
64738;SDS011;51175;51.186;0.276;2023-09-19T02:06:13;9.57;;;3.20;;
64738;SDS011;51175;51.186;0.276;2023-09-19T02:06:45;9.95;;;2.65;;
64738;SDS011;51175;51.186;0.276;2023-09-19T02:07:17;8.75;;;2.38;;
64738;SDS011;51175;51.186;0.276;2023-09-19T02:07:47;8.45;;;3.50;;
64738;SDS011;51175;51.186;0.276;2023-09-19T02:08:19;11.07;;;3.03;;
64738;SDS011;51175;51.186;0.276;2023-09-19T02:08:50;8.18;;;2.30;;
64738;SDS011;51175;51.186;0.276;2023-09-19T02:09:20;7.38;;;2.70;;
64738;SDS011;51175;51.186;0.276;2023-09-19T02:09:51;7.22;;;2.47;;
64738;SDS011;51175;51.186;0.276;2023-09-19T02:10:22;7.30;;;2.40;;
64738;SDS011;51175;51.186;0.276;2023-09-19T02:10:53;5.28;;;1.65;;
64738;SDS011;51175;51.186;0.276;2023-09-19T02:11:23;7.60;;;3.72;;
64738;SDS011;51175;51.186;0.276;2023-09-19T02:11:54;7.03;;;2.42;;
64738;SDS011;51175;51.186;0.276;2023-09-19T02:12:26;7.88;;;2.00;;
64738;SDS011;51175;51.186;0.276;2023-09-19T02:12:57;7.13;;;2.70;;
64738;SDS011;51175;51.186;0.276;2023-09-19T02:13:29;6.80;;;2.60;;
64738;SDS011;51175;51.186;0.276;2023-09-19T02:14:01;7.10;;;2.38;;
64738;SDS011;51175;51.186;0.276;2023-09-19T02:14:32;5.93;;;2.40;;
64738;SDS011;51175;51.186;0.276;2023-09-19T02:15:04;8.73;;;2.70;;
64738;SDS011;51175;51.186;0.276;2023-09-19T02:15:37;8.18;;;2.60;;
64738;SDS011;51175;51.186;0.276;2023-09-19T02:16:07;8.35;;;2.28;;
64738;SDS011;51175;51.186;0.276;2023-09-19T02:16:39;10.75;;;3.50;;
64738;SDS011;51175;51.186;0.276;2023-09-19T02:17:09;7.13;;;2.72;;
64738;SDS011;51175;51.186;0.276;2023-09-19T02:17:45;10.25;;;3.20;;
64738;SDS011;51175;51.186;0.276;2023-09-19T02:18:16;6.57;;;1.90;;
64738;SDS011;51175;51.186;0.276;2023-09-19T02:18:50;7.70;;;2.50;;
64738;SDS011;51175;51.186;0.276;2023-09-19T02:19:21;5.97;;;2.03;;
64738;SDS011;51175;51.186;0.276;2023-09-19T02:19:52;7.32;;;2.40;;
64738;SDS011;51175;51.186;0.276;2023-09-19T02:20:23;16.80;;;3.60;;
64738;SDS011;51175;51.186;0.276;2023-09-19T02:20:53;7.38;;;2.88;;
64738;SDS011;51175;51.186;0.276;2023-09-19T02:21:24;5.88;;;2.42;;
64738;SDS011;51175;51.186;0.276;2023-09-19T02:21:55;11.40;;;2.97;;
64738;SDS011;51175;51.186;0.276;2023-09-19T02:22:25;10.30;;;2.72;;
64738;SDS011;51175;51.186;0.276;2023-09-19T02:22:56;9.18;;;2.75;;
64738;SDS011;51175;51.186;0.276;2023-09-19T02:23:26;7.03;;;2.20;;
64738;SDS011;51175;51.186;0.276;2023-09-19T02:23:57;7.47;;;2.42;;
64738;SDS011;51175;51.186;0.276;2023-09-19T02:24:29;6.88;;;2.20;;
64738;SDS011;51175;51.186;0.276;2023-09-19T02:24:59;6.57;;;1.85;;
64738;SDS011;51175;51.186;0.276;2023-09-19T02:25:30;7.43;;;3.00;;
64738;SDS011;51175;51.186;0.276;2023-09-19T02:26:02;9.48;;;3.38;;
64738;SDS011;51175;51.186;0.276;2023-09-19T02:26:33;5.53;;;2.13;;
64738;SDS011;51175;51.186;0.276;2023-09-19T02:27:06;8.10;;;2.78;;
64738;SDS011;51175;51.186;0.276;2023-09-19T02:27:37;5.50;;;2.15;;
64738;SDS011;51175;51.186;0.276;2023-09-19T02:28:09;5.93;;;2.15;;
64738;SDS011;51175;51.186;0.276;2023-09-19T02:28:40;5.95;;;2.88;;
64738;SDS011;51175;51.186;0.276;2023-09-19T02:29:10;6.95;;;3.42;;
64738;SDS011;51175;51.186;0.276;2023-09-19T02:29:42;7.85;;;2.17;;
64738;SDS011;51175;51.186;0.276;2023-09-19T02:30:13;10.55;;;2.80;;
64738;SDS011;51175;51.186;0.276;2023-09-19T02:30:49;6.43;;;2.55;;
64738;SDS011;51175;51.186;0.276;2023-09-19T02:31:20;7.45;;;2.10;;
64738;SDS011;51175;51.186;0.276;2023-09-19T02:31:50;6.10;;;2.05;;
64738;SDS011;51175;51.186;0.276;2023-09-19T02:32:21;7.80;;;2.25;;
64738;SDS011;51175;51.186;0.276;2023-09-19T02:32:51;8.15;;;2.33;;
64738;SDS011;51175;51.186;0.276;2023-09-19T02:33:22;6.38;;;1.98;;
64738;SDS011;51175;51.186;0.276;2023-09-19T02:33:52;6.72;;;2.22;;
64738;SDS011;51175;51.186;0.276;2023-09-19T02:34:22;7.75;;;2.95;;
64738;SDS011;51175;51.186;0.276;2023-09-19T02:34:53;6.40;;;2.10;;
64738;SDS011;51175;51.186;0.276;2023-09-19T02:35:24;7.70;;;2.15;;
64738;SDS011;51175;51.186;0.276;2023-09-19T02:35:56;4.55;;;2.35;;
64738;SDS011;51175;51.186;0.276;2023-09-19T02:36:30;6.43;;;2.53;;
64738;SDS011;51175;51.186;0.276;2023-09-19T02:37:01;8.07;;;2.20;;
64738;SDS011;51175;51.186;0.276;2023-09-19T02:37:31;5.95;;;2.90;;
64738;SDS011;51175;51.186;0.276;2023-09-19T02:38:03;4.97;;;1.90;;
64738;SDS011;51175;51.186;0.276;2023-09-19T02:38:36;11.10;;;2.88;;
64738;SDS011;51175;51.186;0.276;2023-09-19T02:39:07;8.50;;;2.85;;
64738;SDS011;51175;51.186;0.276;2023-09-19T02:39:38;9.45;;;2.63;;
64738;SDS011;51175;51.186;0.276;2023-09-19T02:40:09;11.23;;;3.33;;
64738;SDS011;51175;51.186;0.276;2023-09-19T02:40:48;5.82;;;2.22;;
64738;SDS011;51175;51.186;0.276;2023-09-19T02:41:19;7.15;;;3.05;;
64738;SDS011;51175;51.186;0.276;2023-09-19T02:41:49;9.18;;;3.20;;
64738;SDS011;51175;51.186;0.276;2023-09-19T02:42:19;8.88;;;2.83;;
64738;SDS011;51175;51.186;0.276;2023-09-19T02:42:53;6.63;;;2.22;;
64738;SDS011;51175;51.186;0.276;2023-09-19T02:43:25;7.32;;;2.30;;
64738;SDS011;51175;51.186;0.276;2023-09-19T02:43:55;6.32;;;2.80;;
64738;SDS011;51175;51.186;0.276;2023-09-19T02:44:26;8.43;;;2.63;;
64738;SDS011;51175;51.186;0.276;2023-09-19T02:44:57;11.18;;;2.55;;
64738;SDS011;51175;51.186;0.276;2023-09-19T02:45:28;10.75;;;3.90;;
64738;SDS011;51175;51.186;0.276;2023-09-19T02:46:00;8.60;;;2.00;;
64738;SDS011;51175;51.186;0.276;2023-09-19T02:46:30;7.63;;;2.30;;
64738;SDS011;51175;51.186;0.276;2023-09-19T02:47:00;7.57;;;2.15;;
64738;SDS011;51175;51.186;0.276;2023-09-19T02:47:31;7.15;;;2.42;;
64738;SDS011;51175;51.186;0.276;2023-09-19T02:48:01;7.82;;;1.88;;
64738;SDS011;51175;51.186;0.276;2023-09-19T02:48:32;11.70;;;3.38;;
64738;SDS011;51175;51.186;0.276;2023-09-19T02:49:04;10.18;;;2.92;;
64738;SDS011;51175;51.186;0.276;2023-09-19T02:49:37;6.30;;;2.47;;
64738;SDS011;51175;51.186;0.276;2023-09-19T02:50:08;9.65;;;2.50;;
64738;SDS011;51175;51.186;0.276;2023-09-19T02:50:41;6.43;;;1.92;;
64738;SDS011;51175;51.186;0.276;2023-09-19T02:51:13;8.63;;;2.60;;
64738;SDS011;51175;51.186;0.276;2023-09-19T02:51:44;9.65;;;3.20;;
64738;SDS011;51175;51.186;0.276;2023-09-19T02:52:14;7.75;;;2.63;;
64738;SDS011;51175;51.186;0.276;2023-09-19T02:52:45;5.68;;;2.05;;
64738;SDS011;51175;51.186;0.276;2023-09-19T02:53:19;8.85;;;2.90;;
64738;SDS011;51175;51.186;0.276;2023-09-19T02:53:50;6.03;;;1.90;;
64738;SDS011;51175;51.186;0.276;2023-09-19T02:54:22;7.82;;;2.60;;
64738;SDS011;51175;51.186;0.276;2023-09-19T02:54:53;8.65;;;3.25;;
64738;SDS011;51175;51.186;0.276;2023-09-19T02:55:23;10.18;;;2.22;;
64738;SDS011;51175;51.186;0.276;2023-09-19T02:55:54;10.15;;;2.80;;
64738;SDS011;51175;51.186;0.276;2023-09-19T02:56:24;6.18;;;2.92;;
64738;SDS011;51175;51.186;0.276;2023-09-19T02:56:55;5.72;;;2.03;;
64738;SDS011;51175;51.186;0.276;2023-09-19T02:57:25;6.13;;;2.38;;
64738;SDS011;51175;51.186;0.276;2023-09-19T02:57:56;5.55;;;2.05;;
64738;SDS011;51175;51.186;0.276;2023-09-19T02:58:26;7.68;;;1.83;;
64738;SDS011;51175;51.186;0.276;2023-09-19T02:58:58;7.63;;;2.90;;
64738;SDS011;51175;51.186;0.276;2023-09-19T02:59:31;3.33;;;1.92;;
64738;SDS011;51175;51.186;0.276;2023-09-19T03:00:03;9.55;;;2.60;;
64738;SDS011;51175;51.186;0.276;2023-09-19T03:00:34;9.48;;;2.53;;
64738;SDS011;51175;51.186;0.276;2023-09-19T03:01:09;9.30;;;2.30;;
64738;SDS011;51175;51.186;0.276;2023-09-19T03:01:44;8.70;;;2.33;;
64738;SDS011;51175;51.186;0.276;2023-09-19T03:02:18;8.45;;;2.63;;
64738;SDS011;51175;51.186;0.276;2023-09-19T03:02:49;8.00;;;2.90;;
64738;SDS011;51175;51.186;0.276;2023-09-19T03:03:21;7.75;;;2.33;;
64738;SDS011;51175;51.186;0.276;2023-09-19T03:03:52;8.43;;;2.50;;
64738;SDS011;51175;51.186;0.276;2023-09-19T03:04:23;8.95;;;2.30;;
64738;SDS011;51175;51.186;0.276;2023-09-19T03:04:54;5.60;;;1.80;;
64738;SDS011;51175;51.186;0.276;2023-09-19T03:05:26;8.18;;;2.97;;
64738;SDS011;51175;51.186;0.276;2023-09-19T03:06:00;8.50;;;3.08;;
64738;SDS011;51175;51.186;0.276;2023-09-19T03:06:34;6.53;;;2.03;;
64738;SDS011;51175;51.186;0.276;2023-09-19T03:07:04;5.25;;;2.10;;
64738;SDS011;51175;51.186;0.276;2023-09-19T03:07:36;9.73;;;2.17;;
64738;SDS011;51175;51.186;0.276;2023-09-19T03:08:07;6.22;;;2.53;;
64738;SDS011;51175;51.186;0.276;2023-09-19T03:08:37;8.55;;;2.00;;
64738;SDS011;51175;51.186;0.276;2023-09-19T03:09:09;5.43;;;2.33;;
64738;SDS011;51175;51.186;0.276;2023-09-19T03:09:41;6.57;;;1.88;;
64738;SDS011;51175;51.186;0.276;2023-09-19T03:10:12;8.35;;;2.08;;
64738;SDS011;51175;51.186;0.276;2023-09-19T03:10:48;5.60;;;2.40;;
64738;SDS011;51175;51.186;0.276;2023-09-19T03:11:18;6.25;;;2.42;;
64738;SDS011;51175;51.186;0.276;2023-09-19T03:11:53;12.02;;;2.97;;
64738;SDS011;51175;51.186;0.276;2023-09-19T03:12:24;10.57;;;3.15;;
64738;SDS011;51175;51.186;0.276;2023-09-19T03:12:55;6.10;;;2.35;;
64738;SDS011;51175;51.186;0.276;2023-09-19T03:13:25;6.40;;;2.20;;
64738;SDS011;51175;51.186;0.276;2023-09-19T03:13:55;7.50;;;1.83;;
64738;SDS011;51175;51.186;0.276;2023-09-19T03:14:26;6.32;;;2.30;;
64738;SDS011;51175;51.186;0.276;2023-09-19T03:15:00;8.50;;;2.92;;
64738;SDS011;51175;51.186;0.276;2023-09-19T03:15:30;8.52;;;2.55;;
64738;SDS011;51175;51.186;0.276;2023-09-19T03:16:01;5.82;;;2.90;;
64738;SDS011;51175;51.186;0.276;2023-09-19T03:16:31;10.07;;;3.58;;
64738;SDS011;51175;51.186;0.276;2023-09-19T03:17:03;6.60;;;2.30;;
64738;SDS011;51175;51.186;0.276;2023-09-19T03:17:36;7.70;;;2.55;;
64738;SDS011;51175;51.186;0.276;2023-09-19T03:18:06;7.80;;;2.88;;
64738;SDS011;51175;51.186;0.276;2023-09-19T03:18:37;13.60;;;2.85;;
64738;SDS011;51175;51.186;0.276;2023-09-19T03:19:07;7.15;;;2.05;;
64738;SDS011;51175;51.186;0.276;2023-09-19T03:19:40;6.07;;;1.63;;
64738;SDS011;51175;51.186;0.276;2023-09-19T03:20:11;9.55;;;2.47;;
64738;SDS011;51175;51.186;0.276;2023-09-19T03:20:43;8.57;;;2.47;;
64738;SDS011;51175;51.186;0.276;2023-09-19T03:21:15;6.85;;;2.40;;
64738;SDS011;51175;51.186;0.276;2023-09-19T03:21:47;5.88;;;2.10;;
64738;SDS011;51175;51.186;0.276;2023-09-19T03:22:19;6.32;;;1.80;;
64738;SDS011;51175;51.186;0.276;2023-09-19T03:22:50;7.00;;;2.40;;
64738;SDS011;51175;51.186;0.276;2023-09-19T03:23:20;9.25;;;2.55;;
64738;SDS011;51175;51.186;0.276;2023-09-19T03:23:51;9.52;;;2.30;;
64738;SDS011;51175;51.186;0.276;2023-09-19T03:24:21;7.53;;;2.53;;
64738;SDS011;51175;51.186;0.276;2023-09-19T03:24:51;8.65;;;2.08;;
64738;SDS011;51175;51.186;0.276;2023-09-19T03:25:23;5.75;;;1.77;;
64738;SDS011;51175;51.186;0.276;2023-09-19T03:25:54;7.10;;;2.60;;
64738;SDS011;51175;51.186;0.276;2023-09-19T03:26:26;9.90;;;3.25;;
64738;SDS011;51175;51.186;0.276;2023-09-19T03:26:56;5.70;;;1.90;;
64738;SDS011;51175;51.186;0.276;2023-09-19T03:27:27;6.28;;;2.65;;
64738;SDS011;51175;51.186;0.276;2023-09-19T03:27:57;8.85;;;2.75;;
64738;SDS011;51175;51.186;0.276;2023-09-19T03:28:28;7.40;;;2.95;;
64738;SDS011;51175;51.186;0.276;2023-09-19T03:28:59;6.95;;;1.42;;